Terminal Aerodrome Forecast
Issued by NWS

Home | Current Version | Previous Version | Text Only | Print | Product List | Glossary On
Versions: 1 2 3 4 5 6 7 8 9 10 11 12 13 14 15
000
FTUS44 KMAF 282320
TAFINK
TAF
KINK 282320Z 2900/2924 16010KT P6SM SCT060 OVC130
      TEMPO 2900/2904 VRB15G25KT 6SM TSRA BKN050CB
     FM290400 08006KT P6SM FEW050 OVC060
     FM291200 07008KT P6SM OVC030=

USA.gov is the U.S. government's official web portal to all federal, state and local government web resources and services.